createdAt,value
2022-08-07T00:00:33.145Z,20.60
2022-08-07T00:03:36.762Z,20.40
2022-08-07T00:06:45.605Z,20.40
2022-08-07T00:10:17.715Z,20.40
2022-08-07T00:13:23.989Z,20.30
2022-08-07T00:16:28.087Z,20.50
2022-08-07T00:19:59.594Z,20.40
2022-08-07T00:22:55.534Z,20.20
2022-08-07T00:26:01.634Z,20.30
2022-08-07T00:29:09.016Z,20.10
2022-08-07T00:32:13.545Z,20.10
2022-08-07T00:35:16.640Z,20.30
2022-08-07T00:38:31.171Z,20.10
2022-08-07T00:41:37.402Z,20.20
2022-08-07T00:44:47.567Z,20.00
2022-08-07T00:48:09.410Z,19.90
2022-08-07T00:51:16.580Z,19.90
2022-08-07T00:54:19.755Z,20.00
2022-08-07T00:57:23.352Z,19.60
2022-08-07T01:00:27.881Z,19.60
2022-08-07T01:03:56.479Z,19.60
2022-08-07T01:06:51.621Z,19.50
2022-08-07T01:10:06.642Z,19.30
2022-08-07T01:13:16.475Z,19.40
2022-08-07T01:16:29.948Z,19.40
2022-08-07T01:19:34.463Z,19.40
2022-08-07T01:22:54.115Z,19.60
2022-08-07T01:26:05.414Z,19.40
2022-08-07T01:29:08.822Z,19.00
2022-08-07T01:32:12.442Z,19.10
2022-08-07T01:35:17.831Z,19.00
2022-08-07T01:38:29.058Z,19.00
2022-08-07T01:41:35.193Z,19.20
2022-08-07T01:44:38.275Z,18.80
2022-08-07T01:48:19.572Z,18.80
2022-08-07T01:51:24.748Z,18.70
2022-08-07T01:54:36.642Z,18.70
2022-08-07T01:58:01.179Z,18.70
2022-08-07T02:01:25.436Z,18.60
2022-08-07T02:04:35.091Z,18.50
2022-08-07T02:07:51.336Z,18.40
2022-08-07T02:11:05.959Z,18.40
2022-08-07T02:14:09.020Z,18.50
2022-08-07T02:17:13.104Z,18.30
2022-08-07T02:20:23.441Z,18.40
2022-08-07T02:23:28.577Z,18.40
2022-08-07T02:26:34.253Z,18.30
2022-08-07T02:29:43.510Z,18.20
2022-08-07T02:33:03.971Z,18.40
2022-08-07T02:36:29.363Z,18.40
2022-08-07T02:39:42.844Z,18.70
2022-08-07T02:42:51.186Z,18.50
2022-08-07T02:46:00.613Z,18.30
2022-08-07T02:49:06.206Z,18.30
2022-08-07T02:52:13.584Z,18.40
2022-08-07T02:55:28.297Z,18.10
2022-08-07T02:58:47.249Z,18.40
2022-08-07T03:01:52.241Z,18.10
2022-08-07T03:04:58.876Z,17.90
2022-08-07T03:08:07.960Z,18.20
2022-08-07T03:11:13.998Z,17.90
2022-08-07T03:14:18.603Z,18.00
2022-08-07T03:17:27.814Z,18.10
2022-08-07T03:20:30.766Z,18.00
2022-08-07T03:23:33.593Z,18.30
2022-08-07T03:26:50.986Z,17.80
2022-08-07T03:29:56.196Z,17.80
2022-08-07T03:33:01.598Z,17.70
2022-08-07T03:36:08.068Z,17.80
2022-08-07T03:39:12.885Z,17.80
2022-08-07T03:42:17.195Z,17.80
2022-08-07T03:45:30.262Z,17.70
2022-08-07T03:48:45.507Z,17.80
2022-08-07T03:52:01.445Z,17.60
2022-08-07T03:55:07.689Z,17.60
2022-08-07T03:59:06.689Z,17.70
2022-08-07T04:01:37.455Z,17.70
2022-08-07T04:04:45.336Z,17.60
2022-08-07T04:07:48.392Z,17.50
2022-08-07T04:12:20.820Z,17.40
2022-08-07T04:14:37.643Z,17.50
2022-08-07T04:18:56.177Z,17.90
2022-08-07T04:21:07.065Z,17.70
2022-08-07T04:24:09.509Z,17.80
2022-08-07T04:27:36.245Z,17.50
2022-08-07T04:30:57.266Z,17.30
2022-08-07T04:34:16.476Z,17.30
2022-08-07T04:37:20.628Z,17.20
2022-08-07T04:40:29.600Z,17.40
2022-08-07T04:44:12.308Z,17.40
2022-08-07T04:47:07.873Z,17.30
2022-08-07T04:50:22.784Z,17.40
2022-08-07T04:54:05.239Z,17.40
2022-08-07T04:58:10.234Z,17.50
2022-08-07T05:00:39.381Z,17.40
2022-08-07T05:04:06.994Z,17.40
2022-08-07T05:07:23.310Z,17.70
2022-08-07T05:10:35.244Z,17.70
2022-08-07T05:14:53.754Z,17.90
2022-08-07T05:17:11.966Z,18.00
2022-08-07T05:20:16.526Z,17.90
2022-08-07T05:23:29.116Z,18.00
2022-08-07T05:26:33.999Z,17.90
2022-08-07T05:29:51.098Z,18.00
2022-08-07T05:32:55.611Z,18.20
2022-08-07T05:36:01.299Z,18.40
2022-08-07T05:39:09.240Z,18.50
2022-08-07T05:42:33.877Z,18.50
2022-08-07T05:45:47.680Z,18.50
2022-08-07T05:48:58.421Z,18.80
2022-08-07T05:52:03.374Z,19.00
2022-08-07T05:55:10.656Z,19.30
2022-08-07T05:58:16.916Z,19.30
2022-08-07T06:01:19.972Z,19.40
2022-08-07T06:04:26.325Z,19.90
2022-08-07T06:08:09.298Z,20.20
2022-08-07T06:10:55.353Z,20.40
2022-08-07T06:14:11.700Z,20.90
2022-08-07T06:17:19.651Z,21.20
2022-08-07T06:20:31.671Z,21.20
2022-08-07T06:24:38.779Z,21.50
2022-08-07T06:26:58.245Z,22.00
2022-08-07T06:30:00.943Z,22.10
2022-08-07T06:33:03.672Z,22.30
2022-08-07T06:36:13.283Z,22.70
2022-08-07T06:40:17.801Z,23.00
2022-08-07T06:42:47.867Z,23.10
2022-08-07T06:46:00.918Z,23.50
2022-08-07T06:49:04.598Z,23.90
2022-08-07T06:52:10.420Z,24.10
2022-08-07T06:55:31.895Z,24.40
2022-08-07T07:00:13.863Z,24.60
2022-08-07T07:02:08.425Z,25.00
2022-08-07T07:05:13.359Z,25.00
2022-08-07T07:08:35.590Z,25.30
2022-08-07T07:12:09.168Z,25.80
2022-08-07T07:15:09.061Z,26.10
2022-08-07T07:18:48.190Z,26.40
2022-08-07T07:22:11.762Z,26.50
2022-08-07T07:26:35.368Z,26.50
2022-08-07T07:29:40.314Z,26.30
2022-08-07T07:32:11.135Z,26.80
2022-08-07T07:35:13.621Z,27.00
2022-08-07T07:38:15.682Z,26.80
2022-08-07T07:41:19.886Z,27.20
2022-08-07T07:44:26.489Z,27.50
2022-08-07T07:47:29.175Z,27.50
2022-08-07T07:50:39.082Z,27.40
2022-08-07T07:53:51.992Z,27.70
2022-08-07T07:56:55.475Z,28.10
2022-08-07T08:00:00.553Z,28.10
2022-08-07T08:03:16.960Z,28.10
2022-08-07T08:06:35.840Z,28.20
2022-08-07T08:09:52.151Z,28.40
2022-08-07T08:13:03.051Z,28.20
2022-08-07T08:16:06.072Z,28.60
2022-08-07T08:20:15.667Z,28.90
2022-08-07T08:22:33.287Z,28.80
2022-08-07T08:25:42.512Z,29.10
2022-08-07T08:28:52.016Z,29.40
2022-08-07T08:32:17.153Z,29.70
2022-08-07T08:35:24.391Z,30.80
2022-08-07T08:38:41.094Z,30.50
2022-08-07T08:41:58.788Z,30.90
2022-08-07T08:45:13.410Z,30.50
2022-08-07T08:48:36.182Z,30.70
2022-08-07T08:52:13.434Z,30.70
2022-08-07T08:55:54.934Z,31.40
2022-08-07T08:58:54.317Z,30.80
2022-08-07T09:02:02.416Z,31.50
2022-08-07T09:05:14.685Z,31.70
2022-08-07T11:03:21.598Z,32.00
2022-08-07T11:06:31.494Z,30.50
2022-08-07T11:10:08.970Z,30.50
2022-08-07T11:13:07.642Z,30.80
2022-08-07T11:16:41.766Z,31.00
2022-08-07T11:19:51.395Z,30.70
2022-08-07T11:23:12.240Z,30.80
2022-08-07T11:26:28.405Z,30.40
2022-08-07T11:29:41.714Z,30.20
2022-08-07T11:32:56.701Z,30.80
2022-08-07T11:35:59.772Z,30.60
2022-08-07T11:39:21.375Z,30.90
2022-08-07T11:42:40.566Z,30.60
2022-08-07T11:46:00.937Z,30.60
2022-08-07T11:49:50.458Z,30.20
2022-08-07T11:52:35.530Z,30.40
2022-08-07T11:56:25.937Z,30.40
2022-08-07T12:00:12.465Z,31.00
2022-08-07T12:03:03.038Z,30.90
2022-08-07T12:06:37.712Z,30.90
2022-08-07T12:09:51.806Z,30.50
2022-08-07T12:12:56.957Z,30.50
2022-08-07T12:16:06.769Z,30.80
2022-08-07T12:19:14.813Z,31.20
2022-08-07T12:22:38.589Z,30.70
2022-08-07T12:26:06.116Z,30.20
2022-08-07T12:29:20.434Z,30.10
2022-08-07T12:32:43.835Z,30.40
2022-08-07T12:35:57.784Z,30.90
2022-08-07T12:39:02.021Z,30.60
2022-08-07T12:42:05.262Z,30.50
2022-08-07T12:45:11.577Z,30.20
2022-08-07T12:48:41.228Z,30.60
2022-08-07T12:52:13.850Z,30.80
2022-08-07T12:55:41.086Z,31.20
2022-08-07T12:58:53.199Z,30.90
2022-08-07T13:02:17.811Z,30.70
2022-08-07T13:06:03.795Z,31.00
2022-08-07T13:09:00.257Z,30.70
2022-08-07T13:12:08.741Z,30.60
2022-08-07T13:15:44.366Z,30.70
2022-08-07T13:18:50.712Z,30.90
2022-08-07T13:22:02.054Z,30.60
2022-08-07T13:25:28.912Z,30.60
2022-08-07T13:28:51.749Z,30.50
2022-08-07T13:31:57.377Z,30.80
2022-08-07T13:35:21.270Z,30.70
2022-08-07T13:38:34.859Z,30.60
2022-08-07T13:41:42.921Z,30.60
2022-08-07T13:45:11.750Z,30.50
2022-08-07T13:48:20.605Z,30.50
2022-08-07T13:52:22.986Z,30.90
2022-08-07T13:54:57.585Z,30.90
2022-08-07T13:58:07.211Z,31.00
2022-08-07T14:01:15.097Z,31.10
2022-08-07T14:04:24.618Z,31.00
2022-08-07T14:07:59.636Z,31.10
2022-08-07T14:11:14.766Z,31.00
2022-08-07T14:14:20.422Z,31.10
2022-08-07T14:18:13.137Z,30.90
2022-08-07T14:20:48.842Z,31.10
2022-08-07T14:24:01.154Z,31.20
2022-08-07T14:28:11.800Z,30.90
2022-08-07T14:30:27.679Z,31.00
2022-08-07T14:33:44.710Z,30.70
2022-08-07T14:36:56.024Z,30.70
2022-08-07T14:40:17.214Z,30.80
2022-08-07T14:43:58.527Z,30.60
2022-08-07T14:46:51.875Z,30.90
2022-08-07T14:50:11.387Z,30.80
2022-08-07T14:53:16.528Z,30.90
2022-08-07T14:56:40.270Z,30.90
2022-08-07T15:00:04.770Z,30.60
2022-08-07T15:03:18.917Z,30.70
2022-08-07T15:06:23.044Z,30.70
2022-08-07T15:09:59.030Z,30.70
2022-08-07T15:12:54.815Z,31.00
2022-08-07T15:16:04.326Z,30.70
2022-08-07T15:19:17.673Z,30.50
2022-08-07T15:22:29.188Z,30.50
2022-08-07T15:25:37.578Z,30.40
2022-08-07T15:28:43.109Z,30.40
2022-08-07T15:32:01.767Z,30.30
2022-08-07T15:35:04.886Z,30.50
2022-08-07T15:42:44.418Z,30.70
2022-08-07T15:44:52.820Z,30.70
2022-08-07T15:48:07.485Z,30.70
2022-08-07T15:51:15.685Z,30.50
2022-08-07T15:54:18.020Z,30.70
2022-08-07T15:57:27.794Z,30.50
2022-08-07T16:00:45.878Z,30.50
2022-08-07T16:03:55.693Z,30.40
2022-08-07T16:07:01.065Z,30.50
2022-08-07T16:10:14.998Z,30.40
2022-08-07T16:13:39.560Z,30.30
2022-08-07T16:16:59.645Z,30.30
2022-08-07T16:20:01.628Z,30.30
2022-08-07T16:23:53.484Z,30.20
2022-08-07T16:27:00.196Z,30.20
2022-08-07T16:30:09.779Z,30.10
2022-08-07T16:34:06.889Z,30.10
2022-08-07T16:38:04.324Z,30.30
2022-08-07T16:40:56.864Z,30.10
2022-08-07T16:44:55.445Z,30.10
2022-08-07T16:48:09.830Z,30.00
2022-08-07T16:51:52.108Z,29.90
2022-08-07T16:54:58.658Z,29.90
2022-08-07T16:58:11.501Z,29.90
2022-08-07T17:01:34.635Z,29.80
2022-08-07T17:04:59.406Z,29.90
2022-08-07T17:08:02.164Z,29.80
2022-08-07T17:11:14.261Z,29.80
2022-08-07T17:14:22.164Z,29.80
2022-08-07T17:17:26.968Z,29.70
2022-08-07T17:20:47.032Z,29.60
2022-08-07T17:23:55.020Z,29.80
2022-08-07T17:26:58.340Z,29.70
2022-08-07T17:30:14.491Z,29.60
2022-08-07T17:34:10.256Z,29.50
2022-08-07T17:36:59.861Z,29.40
2022-08-07T17:40:19.172Z,29.40
2022-08-07T17:44:01.501Z,29.20
2022-08-07T17:47:04.035Z,29.30
2022-08-07T17:50:30.455Z,29.10
2022-08-07T17:54:01.992Z,29.10
2022-08-07T17:57:19.280Z,29.10
2022-08-07T18:00:34.190Z,29.00
2022-08-07T18:04:06.771Z,28.70
2022-08-07T18:07:20.398Z,28.60
2022-08-07T18:10:33.496Z,28.60
2022-08-07T18:13:54.121Z,28.50
2022-08-07T18:18:44.993Z,28.40
2022-08-07T18:21:08.667Z,28.30
2022-08-07T18:24:33.342Z,28.30
2022-08-07T18:27:49.022Z,28.20
2022-08-07T18:30:58.748Z,28.20
2022-08-07T18:34:37.202Z,28.00
2022-08-07T18:38:55.757Z,27.80
2022-08-07T18:41:16.727Z,27.70
2022-08-07T18:44:22.319Z,27.50
2022-08-07T18:47:27.367Z,27.40
2022-08-07T18:50:47.857Z,27.40
2022-08-07T18:54:00.160Z,27.30
2022-08-07T18:57:29.246Z,27.10
2022-08-07T19:00:41.936Z,26.90
2022-08-07T19:04:13.760Z,26.80
2022-08-07T19:07:35.172Z,26.80
2022-08-07T19:10:49.611Z,26.60
2022-08-07T19:14:11.567Z,26.50
2022-08-07T19:17:55.713Z,26.40
2022-08-07T19:21:09.628Z,26.40
2022-08-07T19:24:36.346Z,26.30
2022-08-07T19:28:57.031Z,26.20
2022-08-07T19:31:37.325Z,26.00
2022-08-07T19:34:38.495Z,26.00
2022-08-07T19:37:56.847Z,26.10
2022-08-07T19:41:00.367Z,25.80
2022-08-07T19:44:03.878Z,25.80
2022-08-07T19:47:27.704Z,25.70
2022-08-07T19:50:45.191Z,25.50
2022-08-07T19:54:33.820Z,25.40
2022-08-07T19:58:00.427Z,25.50
2022-08-07T20:00:35.705Z,25.30
2022-08-07T20:03:37.930Z,25.30
2022-08-07T20:06:42.847Z,25.10
2022-08-07T20:10:36.033Z,25.10
2022-08-07T20:13:22.972Z,25.10
2022-08-07T20:16:36.130Z,25.20
2022-08-07T20:19:48.203Z,25.00
2022-08-07T20:23:22.934Z,25.00
2022-08-07T20:26:29.845Z,24.70
2022-08-07T20:29:48.769Z,24.70
2022-08-07T20:33:00.560Z,24.60
2022-08-07T20:36:05.402Z,24.50
2022-08-07T20:39:17.841Z,24.40
2022-08-07T20:42:31.442Z,24.30
2022-08-07T20:46:25.921Z,24.30
2022-08-07T20:49:00.782Z,24.20
2022-08-07T20:52:30.017Z,24.10
2022-08-07T20:55:46.919Z,24.10
2022-08-07T20:58:50.343Z,24.20
2022-08-07T21:01:58.531Z,24.10
2022-08-07T21:05:04.472Z,24.10
2022-08-07T21:08:14.352Z,24.20
2022-08-07T21:11:21.907Z,24.10
2022-08-07T21:14:34.082Z,24.00
2022-08-07T21:18:01.819Z,23.90
2022-08-07T21:21:00.690Z,24.00
2022-08-07T21:24:07.752Z,23.90
2022-08-07T21:27:19.788Z,23.90
2022-08-07T21:30:26.264Z,23.70
2022-08-07T21:33:41.507Z,23.60
2022-08-07T21:36:50.326Z,23.70
2022-08-07T21:40:15.743Z,23.80
2022-08-07T21:43:47.607Z,23.70
2022-08-07T21:46:55.189Z,23.50
2022-08-07T21:50:03.256Z,23.20
2022-08-07T21:53:11.637Z,23.00
2022-08-07T21:56:39.711Z,23.10
2022-08-07T22:00:04.816Z,23.10
2022-08-07T22:03:07.334Z,22.80
2022-08-07T22:06:30.583Z,22.80
2022-08-07T22:09:38.044Z,22.80
2022-08-07T22:12:55.762Z,22.60
2022-08-07T22:16:41.977Z,22.70
2022-08-07T22:19:36.971Z,22.60
2022-08-07T22:22:44.965Z,22.70
2022-08-07T22:25:51.657Z,22.70
2022-08-07T22:29:01.248Z,22.50
2022-08-07T22:32:06.121Z,22.40
2022-08-07T22:35:11.065Z,22.20
2022-08-07T22:38:13.345Z,22.30
2022-08-07T22:41:29.192Z,22.20
2022-08-07T22:44:58.586Z,21.80
2022-08-07T22:48:31.445Z,21.60
2022-08-07T22:51:36.598Z,21.60
2022-08-07T22:54:57.403Z,21.40
2022-08-07T22:58:30.690Z,21.50
2022-08-07T23:01:50.572Z,21.50
2022-08-07T23:06:08.180Z,21.50
2022-08-07T23:08:33.364Z,21.50
2022-08-07T23:11:50.412Z,21.10
2022-08-07T23:16:04.377Z,21.20
2022-08-07T23:19:09.534Z,21.20
2022-08-07T23:22:34.443Z,21.10
2022-08-07T23:25:55.848Z,21.10
2022-08-07T23:28:58.020Z,20.90
2022-08-07T23:34:21.523Z,21.00
2022-08-07T23:35:54.849Z,20.70
2022-08-07T23:39:01.774Z,20.80
2022-08-07T23:42:15.599Z,20.70
2022-08-07T23:46:01.936Z,20.40
2022-08-07T23:49:07.210Z,20.40
2022-08-07T23:53:01.377Z,20.40
2022-08-07T23:55:52.302Z,20.50
2022-08-07T23:59:10.879Z,20.50
